This is the latest recevied weather packets stored in our database for station/object WX4FUN-13. If no packets are shown the sender has not sent any weather packets the latest 10 day(s).
| Time | Temp. | Humidity | Pressure | Rain* | Wind** | Luminosity | Snow |
|---|---|---|---|---|---|---|---|
| 1777382852 | 15° C | 53% | 1022.6 hPa | 0 mm | - | 565 W/m² | - |
| 1777382250 | 14.44° C | 55% | 1022.7 hPa | 0 mm | - | 529 W/m² | - |
| 1777381650 | 14.44° C | 55% | 1022.7 hPa | 0 mm | - | 510 W/m² | - |
| 1777381050 | 15° C | 54% | 1022.9 hPa | 0 mm | - | 479 W/m² | - |
| 1777380450 | 13.33° C | 59% | 1022.9 hPa | 0 mm | - | 444 W/m² | - |
| 1777379851 | 13.89° C | 59% | 1023 hPa | 0 mm | - | 346 W/m² | - |
| 1777379248 | 13.89° C | 58% | 1023.1 hPa | 0 mm | - | 380 W/m² | - |
| 1777378645 | 13.33° C | 60% | 1023.2 hPa | 0 mm | - | 345 W/m² | - |
| 1777378045 | 12.22° C | 62% | 1023.1 hPa | 0 mm | - | 315 W/m² | - |
| 1777377444 | 11.11° C | 68% | 1022.9 hPa | 0 mm | - | 282 W/m² | - |
| 1777376846 | 10° C | 72% | 1023.1 hPa | 0 mm | - | 146 W/m² | - |
| 1777376245 | 8.33° C | 80% | 1023.1 hPa | 0 mm | - | 158 W/m² | - |
| 1777375630 | 7.78° C | 82% | 1023 hPa | 0 mm | - | 169 W/m² | - |
| 1777375030 | 7.22° C | 85% | 1022.9 hPa | 0 mm | - | 37 W/m² | - |
| 1777374430 | 6.11° C | 88% | 1022.8 hPa | 0 mm | - | 34 W/m² | - |
| 1777373830 | 5.56° C | 91% | 1022.7 hPa | 0 mm | - | 32 W/m² | - |
| 1777373233 | 5° C | 92% | 1022.5 hPa | 0 mm | - | 29 W/m² | - |
| 1777372630 | 4.44° C | 92% | 1022.6 hPa | 0 mm | - | 25 W/m² | - |
| 1777372017 | 4.44° C | 92% | 1022.7 hPa | 0 mm | - | 20 W/m² | - |
| 1777371417 | 4.44° C | 92% | 1022.6 hPa | 0 mm | - | 15 W/m² | - |
| 1777370817 | 4.44° C | 92% | 1022.7 hPa | 0 mm | - | 10 W/m² | - |
| 1777370219 | 4.44° C | 91% | 1022.7 hPa | 0 mm | - | 5 W/m² | - |
| 1777369617 | 4.44° C | 91% | 1022.8 hPa | 0 mm | - | 0 W/m² | - |
| 1777369016 | 4.44° C | 90% | 1022.8 hPa | 0 mm | - | 0 W/m² | - |
| 1777368403 | 4.44° C | 89% | 1022.7 hPa | 0 mm | - | 0 W/m² | - |
* Rain latest hour (hover to see other rain measurements)
** Current wind speed in m/s (hover to see current wind gust speed)